createdAt,value
2023-09-20T00:04:11.624Z,96379.16
2023-09-20T00:14:25.661Z,96410.47
2023-09-20T00:24:38.623Z,96414.62
2023-09-20T00:34:51.675Z,96442.53
2023-09-20T00:45:04.634Z,96471.13
2023-09-20T00:55:29.846Z,96487.22
2023-09-20T01:05:46.763Z,96535.81
2023-09-20T01:15:59.682Z,96543.47
2023-09-20T01:26:13.772Z,96548.13
2023-09-20T01:36:26.696Z,96557.06
2023-09-20T01:46:42.760Z,96570.63
2023-09-20T01:56:55.701Z,96587.34
2023-09-20T02:07:08.690Z,96611.22
2023-09-20T02:17:21.762Z,96641.09
2023-09-20T02:27:34.695Z,96676.31
2023-09-20T02:37:50.721Z,96690.09
2023-09-20T02:48:03.755Z,96712.38
2023-09-20T02:58:17.724Z,96704.81
2023-09-20T03:08:30.787Z,96704.97
2023-09-20T03:18:43.816Z,96725.75
2023-09-20T03:29:05.808Z,96748.88
2023-09-20T03:39:20.746Z,96766.66
2023-09-20T03:49:33.783Z,96809.19
2023-09-20T03:59:46.800Z,96717.59
2023-09-20T04:10:05.862Z,96802.72
2023-09-20T04:20:19.846Z,96798.56
2023-09-20T04:30:32.828Z,96965.63
2023-09-20T04:40:45.829Z,97261.00
2023-09-20T04:50:59.828Z,97295.84
2023-09-20T05:01:19.866Z,97256.50
2023-09-20T05:11:33.939Z,97153.91
2023-09-20T05:21:46.837Z,97100.28
2023-09-20T05:32:06.895Z,97148.88
2023-09-20T05:42:20.872Z,97299.62
2023-09-20T05:52:33.870Z,97383.22
2023-09-20T06:02:54.111Z,97390.66
2023-09-20T06:13:07.887Z,97406.19
2023-09-20T06:23:21.939Z,97471.75
2023-09-20T06:33:34.990Z,97527.28
2023-09-20T06:43:48.909Z,97550.72
2023-09-20T06:54:01.916Z,97571.31
2023-09-20T07:04:15.960Z,97564.22
2023-09-20T07:14:32.980Z,97567.56
2023-09-20T07:24:46.276Z,97608.09
2023-09-20T07:35:07.058Z,97627.09
2023-09-20T07:45:22.083Z,97642.41
2023-09-20T07:55:35.987Z,97666.16
2023-09-20T08:05:53.694Z,97677.50
2023-09-20T08:16:09.011Z,97719.75
2023-09-20T08:26:41.076Z,97799.69
2023-09-20T08:37:12.996Z,97892.66
2023-09-20T08:47:44.083Z,97938.09
2023-09-20T09:08:36.113Z,98018.31
2023-09-20T09:18:50.124Z,98030.56
2023-09-20T09:29:10.135Z,98027.41
2023-09-20T09:39:34.326Z,98003.13
2023-09-20T09:49:48.047Z,98029.25
2023-09-20T10:00:08.084Z,97960.22
2023-09-20T10:10:32.119Z,97963.25
2023-09-20T10:21:19.087Z,97943.00
2023-09-20T10:31:31.096Z,98036.50
2023-09-20T10:41:49.166Z,98069.97
2023-09-20T10:52:04.112Z,98076.66
2023-09-20T11:02:26.190Z,98043.78
2023-09-20T11:12:40.300Z,98064.87
2023-09-20T11:22:53.169Z,97960.09
2023-09-20T11:33:10.237Z,98000.72
2023-09-20T11:43:29.165Z,98086.97
2023-09-20T11:53:42.208Z,98128.31
2023-09-20T12:04:02.266Z,98173.44
2023-09-20T12:14:21.291Z,98174.63
2023-09-20T12:24:34.196Z,98182.25
2023-09-20T12:34:47.206Z,98094.13
2023-09-20T12:45:07.200Z,98086.34
2023-09-20T12:55:21.221Z,98079.09
2023-09-20T13:05:44.743Z,98098.59
2023-09-20T13:15:59.307Z,98090.06
2023-09-20T13:26:12.252Z,98043.56
2023-09-20T13:36:25.260Z,98058.06
2023-09-20T13:46:38.319Z,98085.72
2023-09-20T13:56:53.305Z,98091.50
2023-09-20T14:07:15.520Z,98084.91
2023-09-20T14:17:29.338Z,98058.63
2023-09-20T14:27:44.292Z,98024.78
2023-09-20T14:38:02.319Z,98037.88
2023-09-20T14:48:15.463Z,97977.00
2023-09-20T14:58:29.318Z,97947.88
2023-09-20T15:08:42.373Z,97929.91
2023-09-20T15:18:57.342Z,97879.50
2023-09-20T15:29:12.361Z,97796.66
2023-09-20T15:39:26.352Z,97731.22
2023-09-20T15:49:39.396Z,97662.66
2023-09-20T15:59:52.389Z,97580.25
2023-09-20T16:10:12.412Z,97465.09
2023-09-20T16:20:25.459Z,97391.69
2023-09-20T16:30:38.404Z,97388.47
2023-09-20T16:40:51.430Z,97385.63
2023-09-20T16:51:05.452Z,97246.19
2023-09-20T17:01:27.458Z,97149.78
2023-09-20T17:11:41.467Z,97263.06
2023-09-20T17:21:54.432Z,97346.66
2023-09-20T17:32:08.443Z,97279.31
2023-09-20T17:42:23.458Z,97252.41
2023-09-20T17:52:35.482Z,97268.94
2023-09-20T18:02:55.599Z,97306.88
2023-09-20T18:13:08.489Z,97355.50
2023-09-20T18:23:21.506Z,97374.25
2023-09-20T18:33:34.578Z,97460.16
2023-09-20T18:43:48.525Z,97457.69
2023-09-20T18:54:02.471Z,97518.91
2023-09-20T19:04:22.669Z,97445.81
2023-09-20T19:14:35.578Z,97484.63
2023-09-20T19:24:50.553Z,97472.22
2023-09-20T19:35:08.540Z,97508.63
2023-09-20T19:45:22.578Z,97457.31
2023-09-20T19:55:36.590Z,97431.97
2023-09-20T20:05:56.596Z,97422.97
2023-09-20T20:16:10.690Z,97462.44
2023-09-20T20:26:24.622Z,97399.41
2023-09-20T20:36:37.636Z,97366.28
